Time;durP1;ratioP1;P1;durP2;ratioP2;P2;SDS_P1;SDS_P2;PMS_P1;PMS_P2;Temp;Humidity;BMP_temperature;BMP_pressure;BME280_temperature;BME280_humidity;BME280_pressure;Samples;Min_cycle;Max_cycle;Signal;HPM_P1;HPM_P2
2023/08/13 07:06:04;;;;;;;7.88;2.50;;;;;;;;;;6169103;23;20128;-87
2023/08/13 07:08:49;;;;;;;8.85;2.65;;;;;;;;;;6127263;23;20025;-86
2023/08/13 07:27:11;;;;;;;5.78;2.67;;;;;;;;;;6061412;23;20754;-86
2023/08/13 07:29:37;;;;;;;9.20;2.75;;;;;;;;;;6105156;23;20017;-85
2023/08/13 07:32:09;;;;;;;8.38;2.22;;;;;;;;;;6126471;23;20321;-86
2023/08/13 07:40:23;;;;;;;7.53;2.80;;;;;;;;;;6209746;22;20031;-84
2023/08/13 07:43:24;;;;;;;5.43;2.30;;;;;;;;;;6183828;23;20017;-88
2023/08/13 08:13:59;;;;;;;;;;;;;;;;;;;;;
2023/08/13 09:01:36;;;;;;;10.93;2.40;;;;;;;;;;6094044;23;20053;-86
2023/08/13 09:07:19;;;;;;;8.88;3.38;;;;;;;;;;6095269;23;20073;-87
2023/08/13 09:57:09;;;;;;;5.57;2.53;;;;;;;;;;6183447;23;20024;-86
2023/08/13 10:00:03;;;;;;;8.20;2.20;;;;;;;;;;6156537;23;20518;-85
2023/08/13 10:02:45;;;;;;;8.60;2.92;;;;;;;;;;6181009;23;20779;-87
2023/08/13 10:05:27;;;;;;;6.97;2.15;;;;;;;;;;6154289;23;20025;-86
2023/08/13 10:20:41;;;;;;;6.97;2.58;;;;;;;;;;6154110;23;20409;-85
2023/08/13 11:24:01;;;;;;;5.43;2.20;;;;;;;;;;6033804;23;20592;-82
2023/08/13 11:29:17;;;;;;;5.10;2.33;;;;;;;;;;6164049;23;20591;-83
2023/08/13 11:31:46;;;;;;;6.70;2.10;;;;;;;;;;6126639;23;20047;-83
2023/08/13 11:34:14;;;;;;;6.93;2.20;;;;;;;;;;6128178;23;20037;-83
2023/08/13 11:36:43;;;;;;;5.80;1.80;;;;;;;;;;6127187;23;20021;-83
2023/08/13 11:39:09;;;;;;;5.38;2.72;;;;;;;;;;6126174;23;20033;-83
2023/08/13 11:41:35;;;;;;;6.60;2.55;;;;;;;;;;6152846;23;20512;-83
2023/08/13 11:44:01;;;;;;;9.50;2.45;;;;;;;;;;6152228;23;20006;-83
2023/08/13 11:46:27;;;;;;;8.07;2.85;;;;;;;;;;6152654;23;20021;-83
2023/08/13 11:49:03;;;;;;;8.57;2.95;;;;;;;;;;6152034;23;20021;-83
2023/08/13 11:51:30;;;;;;;6.95;2.45;;;;;;;;;;6128035;23;20092;-82
2023/08/13 11:53:56;;;;;;;7.03;2.40;;;;;;;;;;6153419;23;20013;-86
2023/08/13 11:56:22;;;;;;;10.13;2.50;;;;;;;;;;6152585;23;20045;-83
2023/08/13 11:58:49;;;;;;;7.30;2.60;;;;;;;;;;6126584;23;20092;-85
2023/08/13 12:01:15;;;;;;;9.60;3.38;;;;;;;;;;6126866;23;20012;-83
2023/08/13 12:03:43;;;;;;;5.10;2.50;;;;;;;;;;6128274;23;20035;-83
2023/08/13 12:06:12;;;;;;;7.22;2.63;;;;;;;;;;6127695;23;20012;-84
2023/08/13 12:08:38;;;;;;;6.45;2.40;;;;;;;;;;6127366;23;20020;-83
2023/08/13 12:11:10;;;;;;;7.93;2.45;;;;;;;;;;6127390;23;20021;-83
2023/08/13 12:13:49;;;;;;;6.75;2.40;;;;;;;;;;6154034;23;20012;-85
2023/08/13 12:16:26;;;;;;;8.60;2.75;;;;;;;;;;6126800;23;20017;-84
2023/08/13 12:22:28;;;;;;;6.88;2.58;;;;;;;;;;6062450;23;20026;-85
2023/08/13 12:24:54;;;;;;;7.82;2.90;;;;;;;;;;6061764;23;20014;-84
2023/08/13 12:27:20;;;;;;;9.93;2.67;;;;;;;;;;6126420;23;20018;-85
2023/08/13 12:29:46;;;;;;;10.93;2.70;;;;;;;;;;6140899;23;20025;-87
2023/08/13 12:32:12;;;;;;;10.77;3.10;;;;;;;;;;6179725;23;20021;-87
2023/08/13 12:34:38;;;;;;;6.60;2.85;;;;;;;;;;6179761;23;20009;-85
2023/08/13 12:40:35;;;;;;;7.55;2.65;;;;;;;;;;6176788;23;20201;-87
2023/08/13 12:43:02;;;;;;;8.75;2.60;;;;;;;;;;6181016;23;20137;-86
2023/08/13 12:45:28;;;;;;;8.80;3.10;;;;;;;;;;6182757;23;20001;-86
2023/08/13 12:47:54;;;;;;;8.73;2.70;;;;;;;;;;6180723;23;20092;-87
2023/08/13 12:50:20;;;;;;;10.10;3.35;;;;;;;;;;6181686;23;20009;-85
2023/08/13 12:52:46;;;;;;;5.93;2.95;;;;;;;;;;6180973;23;20028;-88
2023/08/13 12:55:13;;;;;;;15.38;3.28;;;;;;;;;;6181739;23;20009;-89
2023/08/13 12:57:39;;;;;;;6.38;2.67;;;;;;;;;;6180716;23;20093;-86
2023/08/13 13:00:10;;;;;;;8.90;2.70;;;;;;;;;;6181934;23;20067;-88
2023/08/13 13:02:36;;;;;;;9.00;2.83;;;;;;;;;;6181322;23;20009;-83
2023/08/13 13:05:03;;;;;;;7.38;2.80;;;;;;;;;;6180425;23;20104;-84
2023/08/13 13:07:55;;;;;;;6.03;2.60;;;;;;;;;;6170731;23;20025;-87
2023/08/13 13:10:26;;;;;;;9.63;2.40;;;;;;;;;;6155948;23;20017;-84
2023/08/13 13:12:55;;;;;;;7.68;2.45;;;;;;;;;;6156305;23;20743;-83
2023/08/13 13:15:24;;;;;;;8.82;3.45;;;;;;;;;;6155988;23;20017;-83
2023/08/13 13:17:55;;;;;;;9.40;2.72;;;;;;;;;;6181324;23;20740;-82
2023/08/13 13:20:31;;;;;;;8.73;3.42;;;;;;;;;;6155877;23;20083;-84
2023/08/13 13:23:00;;;;;;;8.55;2.60;;;;;;;;;;6155549;23;20092;-82
2023/08/13 13:49:39;;;;;;;5.05;2.60;;;;;;;;;;6181607;23;20082;-89
2023/08/13 13:52:05;;;;;;;9.95;3.08;;;;;;;;;;6180622;23;20023;-90
2023/08/13 13:54:31;;;;;;;11.15;2.67;;;;;;;;;;6182369;23;20013;-89
2023/08/13 13:56:57;;;;;;;8.05;2.22;;;;;;;;;;6180614;23;20207;-89
2023/08/13 13:59:24;;;;;;;6.35;2.33;;;;;;;;;;6181344;23;20013;-88
2023/08/13 14:01:50;;;;;;;5.47;2.22;;;;;;;;;;6181080;23;20816;-87
2023/08/13 14:04:16;;;;;;;8.68;2.40;;;;;;;;;;6180562;23;20456;-88
2023/08/13 14:09:18;;;;;;;9.30;2.45;;;;;;;;;;6182876;23;20055;-87
2023/08/13 14:11:44;;;;;;;6.70;3.00;;;;;;;;;;6155419;23;20017;-89
2023/08/13 14:14:10;;;;;;;9.10;2.63;;;;;;;;;;6155815;23;20019;-88
2023/08/13 14:16:36;;;;;;;5.65;2.10;;;;;;;;;;6156252;23;20012;-85
2023/08/13 14:19:02;;;;;;;10.73;3.28;;;;;;;;;;6159511;23;20009;-83
2023/08/13 14:21:28;;;;;;;7.88;2.50;;;;;;;;;;6185626;23;20098;-85
2023/08/13 14:24:00;;;;;;;8.55;2.20;;;;;;;;;;6159586;23;20013;-85
2023/08/13 14:26:54;;;;;;;;;;;;;;;;;;;;;
2023/08/13 14:32:57;;;;;;;6.47;2.20;;;;;;;;;;6033709;23;20173;-85
2023/08/13 14:45:36;;;;;;;11.60;2.75;;;;;;;;;;6033686;23;20015;-84
2023/08/13 14:51:19;;;;;;;8.30;2.28;;;;;;;;;;6101425;23;20044;-89
2023/08/13 14:53:59;;;;;;;6.35;2.90;;;;;;;;;;6156606;23;20005;-88
2023/08/13 15:00:28;;;;;;;6.60;2.28;;;;;;;;;;6064680;23;20025;-85
2023/08/13 15:02:52;;;;;;;6.70;2.00;;;;;;;;;;6100220;23;20052;-85
2023/08/13 15:05:38;;;;;;;6.93;2.85;;;;;;;;;;6167720;23;20020;-85
2023/08/13 15:08:24;;;;;;;8.27;2.65;;;;;;;;;;6092197;23;20332;-84
2023/08/13 15:11:00;;;;;;;7.72;2.70;;;;;;;;;;6068678;23;20101;-85
2023/08/13 15:16:13;;;;;;;8.13;2.28;;;;;;;;;;6091489;23;20085;-86
2023/08/13 15:18:57;;;;;;;6.72;2.15;;;;;;;;;;6091042;23;20030;-85
2023/08/13 15:21:45;;;;;;;;;;;;;;;;;;;;;
2023/08/13 15:24:25;;;;;;;7.43;2.60;;;;;;;;;;6092138;23;20446;-85
2023/08/13 15:36:39;;;;;;;9.95;3.55;;;;;;;;;;6177348;23;20032;-85
2023/08/13 15:39:38;;;;;;;8.85;2.47;;;;;;;;;;6153674;23;20036;-85
2023/08/13 15:42:16;;;;;;;8.88;2.72;;;;;;;;;;6037582;23;20023;-85
2023/08/13 15:53:53;;;;;;;9.63;2.17;;;;;;;;;;6005260;23;20019;-85
2023/08/13 15:59:32;;;;;;;12.13;2.30;;;;;;;;;;6016139;23;20015;-85
2023/08/13 16:02:07;;;;;;;10.35;2.60;;;;;;;;;;6039031;23;20136;-85
2023/08/13 16:04:35;;;;;;;7.43;2.42;;;;;;;;;;6038762;23;20055;-85
2023/08/13 16:07:10;;;;;;;9.00;2.75;;;;;;;;;;6039559;23;20026;-86
2023/08/13 16:09:36;;;;;;;5.85;2.03;;;;;;;;;;6039640;23;20066;-85
2023/08/13 16:12:12;;;;;;;8.80;2.42;;;;;;;;;;6038770;23;20023;-85
2023/08/13 16:14:39;;;;;;;9.25;2.67;;;;;;;;;;6037716;23;20015;-86
2023/08/13 16:17:30;;;;;;;11.00;2.42;;;;;;;;;;6069210;23;20214;-85
2023/08/13 16:22:59;;;;;;;9.00;2.17;;;;;;;;;;6078539;23;20700;-85
2023/08/13 16:25:41;;;;;;;8.50;2.92;;;;;;;;;;6069163;23;20030;-86
2023/08/13 16:28:24;;;;;;;12.02;2.55;;;;;;;;;;6117383;23;20088;-85
2023/08/13 16:31:03;;;;;;;12.40;2.55;;;;;;;;;;6152886;23;20014;-85
2023/08/13 16:33:43;;;;;;;13.43;2.50;;;;;;;;;;6127602;23;20041;-85
2023/08/13 16:36:17;;;;;;;9.20;2.75;;;;;;;;;;6141626;23;20017;-85
2023/08/13 16:39:04;;;;;;;8.75;2.05;;;;;;;;;;6159029;23;20028;-86
2023/08/13 16:41:43;;;;;;;10.38;2.50;;;;;;;;;;6182948;23;20056;-85
2023/08/13 16:44:16;;;;;;;5.88;2.92;;;;;;;;;;6182397;23;20017;-85
2023/08/13 16:46:47;;;;;;;6.47;2.50;;;;;;;;;;6184670;23;20020;-90
2023/08/13 16:49:24;;;;;;;;;;;;;;;;;;6183117;23;20013;-86
2023/08/13 16:52:08;;;;;;;6.20;2.53;;;;;;;;;;6183447;23;19912;-87
2023/08/13 16:54:37;;;;;;;6.93;2.42;;;;;;;;;;6182255;23;20024;-87
2023/08/13 16:57:03;;;;;;;10.88;2.55;;;;;;;;;;6184726;23;20013;-88
2023/08/13 16:59:51;;;;;;;6.38;2.33;;;;;;;;;;6184656;23;20095;-89
2023/08/13 17:02:17;;;;;;;9.15;2.72;;;;;;;;;;6181850;23;20429;-89
2023/08/13 17:04:46;;;;;;;10.82;3.30;;;;;;;;;;6181279;23;20064;-88
2023/08/13 17:07:15;;;;;;;8.35;2.42;;;;;;;;;;6180820;23;20055;-88
2023/08/13 17:10:17;;;;;;;6.97;2.35;;;;;;;;;;6180495;23;20021;-84
2023/08/13 17:13:03;;;;;;;8.20;3.05;;;;;;;;;;6178871;23;20096;-85
2023/08/13 17:15:38;;;;;;;6.55;2.17;;;;;;;;;;6184342;23;20040;-85
2023/08/13 17:18:05;;;;;;;10.65;2.40;;;;;;;;;;6184960;23;20001;-85
2023/08/13 17:20:31;;;;;;;11.23;2.28;;;;;;;;;;6183818;23;20593;-84
2023/08/13 17:22:57;;;;;;;6.90;2.67;;;;;;;;;;6182540;23;20015;-84
2023/08/13 17:25:23;;;;;;;13.20;3.95;;;;;;;;;;6180359;23;20033;-85
2023/08/13 17:34:24;;;;;;;8.00;3.45;;;;;;;;;;6153006;23;20028;-87
2023/08/13 17:36:56;;;;;;;8.20;2.70;;;;;;;;;;6157288;23;20417;-87
2023/08/13 17:45:44;;;;;;;9.50;2.58;;;;;;;;;;6178724;23;20760;-86
2023/08/13 17:48:10;;;;;;;7.70;2.70;;;;;;;;;;6154137;23;20120;-85
2023/08/13 17:50:36;;;;;;;6.72;2.53;;;;;;;;;;6155229;23;20063;-84
2023/08/13 17:53:12;;;;;;;7.47;2.22;;;;;;;;;;6155774;23;20045;-84
2023/08/13 17:55:40;;;;;;;10.68;2.72;;;;;;;;;;6182543;23;20013;-83
2023/08/13 17:58:06;;;;;;;8.40;2.42;;;;;;;;;;6156137;23;20317;-84
2023/08/13 18:00:38;;;;;;;10.85;3.22;;;;;;;;;;6158806;23;20013;-85
2023/08/13 18:03:04;;;;;;;7.38;3.10;;;;;;;;;;6159178;23;20016;-85
2023/08/13 18:05:30;;;;;;;8.32;2.88;;;;;;;;;;6155905;23;20009;-84
2023/08/13 18:07:56;;;;;;;8.38;3.55;;;;;;;;;;6158088;23;20011;-83
2023/08/13 18:10:44;;;;;;;10.98;3.33;;;;;;;;;;6158724;23;20029;-85
2023/08/13 18:13:48;;;;;;;10.15;3.45;;;;;;;;;;6167380;23;20032;-84
2023/08/13 18:16:17;;;;;;;9.10;3.28;;;;;;;;;;6121701;23;20018;-85
2023/08/13 18:18:43;;;;;;;7.07;3.25;;;;;;;;;;6154547;23;20037;-82
2023/08/13 18:21:09;;;;;;;11.10;3.55;;;;;;;;;;6130445;23;20005;-83
2023/08/13 18:23:35;;;;;;;8.50;3.58;;;;;;;;;;6156547;23;20001;-84
2023/08/13 18:26:01;;;;;;;9.65;3.35;;;;;;;;;;6129620;23;20480;-84
2023/08/13 18:28:35;;;;;;;12.10;5.13;;;;;;;;;;6129143;23;20369;-84
2023/08/13 18:34:04;;;;;;;6.97;3.40;;;;;;;;;;6145225;23;20049;-83
2023/08/13 18:36:30;;;;;;;10.70;5.03;;;;;;;;;;6126982;23;20017;-83
2023/08/13 18:39:24;;;;;;;;;;;;;;;;;;;;;
2023/08/13 18:42:37;;;;;;;8.75;2.95;;;;;;;;;;6035188;23;20035;-82
2023/08/13 18:45:42;;;;;;;6.50;2.63;;;;;;;;;;6006098;23;20344;-85
2023/08/13 18:51:37;;;;;;;10.13;2.80;;;;;;;;;;6152672;23;20049;-84
2023/08/13 18:54:08;;;;;;;9.95;2.95;;;;;;;;;;6126539;23;20452;-82
